createdAt,value
2022-09-07T00:00:55.611Z,48.49
2022-09-07T00:03:26.398Z,48.46
2022-09-07T00:05:57.395Z,48.65
2022-09-07T00:08:29.458Z,48.43
2022-09-07T00:11:03.561Z,48.45
2022-09-07T00:13:37.135Z,48.58
2022-09-07T00:16:09.997Z,48.53
2022-09-07T00:18:45.209Z,48.59
2022-09-07T00:21:18.836Z,48.52
2022-09-07T00:23:51.321Z,48.68
2022-09-07T00:26:26.635Z,48.78
2022-09-07T00:29:02.473Z,48.87
2022-09-07T00:31:33.389Z,48.78
2022-09-07T00:34:04.170Z,48.84
2022-09-07T00:36:34.619Z,48.72
2022-09-07T00:39:05.724Z,48.83
2022-09-07T00:41:36.038Z,48.90
2022-09-07T00:44:43.969Z,48.80
2022-09-07T00:47:27.326Z,49.02
2022-09-07T00:50:05.938Z,49.20
2022-09-07T00:52:39.264Z,48.90
2022-09-07T00:55:13.876Z,49.12
2022-09-07T00:57:49.958Z,49.17
2022-09-07T01:00:20.773Z,49.12
2022-09-07T01:02:53.842Z,49.04
2022-09-07T01:05:31.644Z,49.10
2022-09-07T01:08:01.836Z,49.22
2022-09-07T01:10:33.154Z,49.19
2022-09-07T01:13:03.803Z,49.22
2022-09-07T01:15:52.850Z,49.19
2022-09-07T01:18:42.001Z,49.34
2022-09-07T01:21:26.720Z,49.43
2022-09-07T01:24:32.074Z,49.46
2022-09-07T01:27:48.895Z,49.38
2022-09-07T01:30:24.421Z,49.58
2022-09-07T01:33:10.057Z,49.60
2022-09-07T01:35:53.375Z,49.57
2022-09-07T01:38:43.633Z,49.71
2022-09-07T01:41:26.947Z,49.71
2022-09-07T01:44:11.687Z,49.73
2022-09-07T01:47:00.164Z,49.63
2022-09-07T01:49:39.154Z,49.76
2022-09-07T01:52:15.478Z,49.91
2022-09-07T01:54:55.485Z,49.83
2022-09-07T01:57:32.993Z,49.71
2022-09-07T02:00:09.706Z,50.08
2022-09-07T02:02:51.683Z,50.05
2022-09-07T02:05:32.763Z,50.26
2022-09-07T02:08:11.806Z,50.19
2022-09-07T02:10:47.104Z,50.02
2022-09-07T02:13:41.337Z,50.19
2022-09-07T02:16:26.488Z,50.33
2022-09-07T02:19:11.485Z,50.28
2022-09-07T02:21:45.347Z,50.31
2022-09-07T02:24:28.313Z,50.40
2022-09-07T02:27:01.602Z,50.43
2022-09-07T02:29:32.598Z,50.62
2022-09-07T02:32:03.155Z,50.61
2022-09-07T02:34:34.534Z,50.50
2022-09-07T02:37:07.806Z,50.51
2022-09-07T02:39:38.931Z,50.44
2022-09-07T02:42:09.264Z,50.59
2022-09-07T02:44:43.034Z,50.80
2022-09-07T02:47:36.556Z,50.76
2022-09-07T02:50:31.419Z,50.81
2022-09-07T02:53:29.324Z,50.63
2022-09-07T02:56:13.576Z,50.74
2022-09-07T02:58:46.689Z,50.77
2022-09-07T03:01:31.879Z,50.75
2022-09-07T03:04:11.046Z,50.84
2022-09-07T03:06:47.974Z,50.87
2022-09-07T03:09:22.876Z,50.96
2022-09-07T03:11:55.564Z,50.91
2022-09-07T03:14:30.766Z,50.97
2022-09-07T03:17:03.097Z,50.99
2022-09-07T03:19:33.550Z,51.11
2022-09-07T03:22:04.527Z,51.01
2022-09-07T03:24:35.446Z,51.15
2022-09-07T03:27:06.096Z,51.15
2022-09-07T03:29:40.173Z,51.08
2022-09-07T03:32:12.196Z,51.08
2022-09-07T03:34:42.803Z,51.08
2022-09-07T03:37:13.446Z,51.31
2022-09-07T03:39:46.202Z,51.35
2022-09-07T03:42:16.473Z,51.39
2022-09-07T03:44:46.930Z,51.41
2022-09-07T03:47:18.521Z,51.34
2022-09-07T03:49:49.465Z,51.26
2022-09-07T03:52:20.156Z,51.15
2022-09-07T03:54:50.366Z,51.28
2022-09-07T03:57:22.596Z,51.30
2022-09-07T03:59:53.036Z,51.21
2022-09-07T04:02:23.518Z,51.20
2022-09-07T04:04:53.936Z,51.30
2022-09-07T04:07:24.255Z,51.34
2022-09-07T04:09:57.552Z,51.53
2022-09-07T04:12:28.037Z,51.51
2022-09-07T04:14:58.716Z,51.53
2022-09-07T04:17:29.077Z,51.58
2022-09-07T04:19:59.296Z,51.65
2022-09-07T04:22:31.396Z,51.43
2022-09-07T04:25:01.977Z,51.57
2022-09-07T04:27:32.186Z,51.60
2022-09-07T04:30:02.624Z,51.63
2022-09-07T04:32:33.147Z,51.62
2022-09-07T04:35:03.698Z,51.70
2022-09-07T04:37:34.079Z,51.68
2022-09-07T04:40:04.455Z,51.85
2022-09-07T04:42:35.041Z,51.78
2022-09-07T04:45:06.778Z,51.86
2022-09-07T04:47:37.197Z,51.89
2022-09-07T04:50:08.907Z,52.03
2022-09-07T04:52:39.317Z,51.86
2022-09-07T04:55:10.244Z,51.79
2022-09-07T04:57:41.127Z,52.21
2022-09-07T05:00:12.242Z,52.17
2022-09-07T05:02:43.318Z,52.30
2022-09-07T05:05:13.917Z,52.22
2022-09-07T05:07:44.365Z,52.38
2022-09-07T05:10:14.721Z,52.33
2022-09-07T05:12:45.165Z,52.43
2022-09-07T05:15:16.636Z,52.45
2022-09-07T05:17:46.986Z,52.56
2022-09-07T05:20:20.530Z,52.49
2022-09-07T05:22:51.249Z,52.69
2022-09-07T05:25:21.561Z,52.65
2022-09-07T05:27:52.051Z,52.76
2022-09-07T05:33:12.956Z,53.09
2022-09-07T05:35:43.264Z,53.12
2022-09-07T05:38:14.044Z,53.15
2022-09-07T05:40:44.579Z,53.13
2022-09-07T05:43:14.991Z,53.28
2022-09-07T05:45:45.638Z,53.45
2022-09-07T05:48:19.063Z,53.40
2022-09-07T05:50:55.731Z,53.59
2022-09-07T05:53:26.381Z,53.63
2022-09-07T05:56:06.465Z,53.76
2022-09-07T05:58:38.451Z,53.74
2022-09-07T06:01:14.302Z,53.78
2022-09-07T06:03:48.057Z,54.00
2022-09-07T06:06:20.231Z,53.92
2022-09-07T06:08:53.244Z,53.92
2022-09-07T06:11:27.238Z,54.17
2022-09-07T06:13:58.821Z,54.25
2022-09-07T06:16:29.373Z,54.16
2022-09-07T06:18:59.727Z,54.47
2022-09-07T06:21:30.129Z,54.50
2022-09-07T06:24:00.494Z,54.52
2022-09-07T06:26:30.835Z,54.61
2022-09-07T06:29:01.294Z,54.73
2022-09-07T06:31:31.938Z,54.86
2022-09-07T06:34:02.557Z,54.89
2022-09-07T06:36:34.625Z,55.07
2022-09-07T06:39:06.588Z,55.17
2022-09-07T06:44:42.256Z,55.02
2022-09-07T06:47:13.351Z,55.25
2022-09-07T06:49:43.921Z,55.49
2022-09-07T06:52:14.494Z,55.40
2022-09-07T06:55:00.231Z,55.64
2022-09-07T06:57:31.457Z,55.69
2022-09-07T07:00:05.787Z,55.76
2022-09-07T07:02:36.172Z,55.83
2022-09-07T07:05:06.725Z,56.00
2022-09-07T07:07:37.205Z,55.72
2022-09-07T07:10:08.065Z,55.76
2022-09-07T07:15:09.228Z,55.08
2022-09-07T07:17:39.932Z,55.68
2022-09-07T07:20:10.906Z,55.73
2022-09-07T07:22:48.172Z,55.86
2022-09-07T07:25:18.799Z,55.50
2022-09-07T07:27:50.444Z,55.13
2022-09-07T07:30:22.133Z,55.45
2022-09-07T07:32:52.651Z,55.79
2022-09-07T07:35:24.113Z,55.74
2022-09-07T07:43:36.562Z,55.48
2022-09-07T07:46:14.321Z,54.74
2022-09-07T07:48:45.095Z,54.19
2022-09-07T07:51:15.652Z,53.99
2022-09-07T07:53:46.377Z,53.83
2022-09-07T07:56:16.703Z,53.75
2022-09-07T07:58:49.046Z,53.78
2022-09-07T08:01:20.312Z,54.18
2022-09-07T08:03:51.223Z,53.87
2022-09-07T08:06:23.100Z,53.33
2022-09-07T08:08:53.457Z,52.93
2022-09-07T08:11:24.535Z,53.08
2022-09-07T08:13:55.564Z,53.37
2022-09-07T08:16:25.625Z,53.11
2022-09-07T08:18:55.977Z,53.04
2022-09-07T08:21:26.275Z,52.58
2022-09-07T08:23:57.436Z,52.32
2022-09-07T08:26:28.208Z,52.37
2022-09-07T08:28:59.125Z,52.23
2022-09-07T08:31:29.477Z,52.12
2022-09-07T08:34:02.231Z,52.06
2022-09-07T08:36:33.144Z,51.92
2022-09-07T08:39:03.614Z,51.90
2022-09-07T08:42:03.679Z,51.68
2022-09-07T08:45:05.624Z,51.18
2022-09-07T08:47:42.213Z,51.47
2022-09-07T08:50:14.024Z,51.49
2022-09-07T08:52:59.568Z,51.29
2022-09-07T08:55:38.928Z,51.21
2022-09-07T08:58:47.758Z,50.93
2022-09-07T09:01:37.074Z,50.70
2022-09-07T09:04:18.179Z,50.47
2022-09-07T09:06:52.957Z,50.20
2022-09-07T09:09:39.358Z,50.04
2022-09-07T09:12:23.742Z,49.83
2022-09-07T09:15:12.954Z,49.66
2022-09-07T09:18:21.714Z,49.41
2022-09-07T09:21:08.166Z,49.31
2022-09-07T09:23:54.801Z,48.82
2022-09-07T09:26:27.617Z,48.73
2022-09-07T09:28:58.133Z,48.55
2022-09-07T09:31:37.116Z,48.36
2022-09-07T09:34:07.343Z,48.08
2022-09-07T09:36:44.651Z,47.72
2022-09-07T09:39:34.819Z,47.69
2022-09-07T09:42:41.241Z,47.62
2022-09-07T09:45:21.128Z,47.41
2022-09-07T09:47:54.889Z,47.57
2022-09-07T09:53:41.621Z,47.03
2022-09-07T09:56:11.784Z,46.90
2022-09-07T10:01:36.855Z,46.85
2022-09-07T10:04:27.968Z,46.77
2022-09-07T10:07:05.911Z,46.92
2022-09-07T10:09:44.720Z,46.51
2022-09-07T10:12:34.943Z,46.32
2022-09-07T10:15:08.473Z,45.92
2022-09-07T10:17:44.751Z,45.86
2022-09-07T10:20:17.904Z,45.89
2022-09-07T10:22:54.381Z,45.73
2022-09-07T10:25:44.719Z,45.79
2022-09-07T10:28:25.202Z,45.51
2022-09-07T10:31:18.438Z,45.53
2022-09-07T10:37:11.298Z,44.74
2022-09-07T10:39:44.439Z,44.46
2022-09-07T10:42:37.493Z,44.56
2022-09-07T10:45:29.644Z,44.41
2022-09-07T10:48:16.338Z,44.50
2022-09-07T10:50:53.217Z,44.38
2022-09-07T10:53:41.894Z,44.00
2022-09-07T10:56:17.364Z,44.06
2022-09-07T10:59:07.957Z,43.98
2022-09-07T11:01:53.329Z,43.60
2022-09-07T11:04:51.455Z,43.61
2022-09-07T11:07:34.767Z,43.48
2022-09-07T11:10:20.054Z,43.58
2022-09-07T11:12:53.799Z,43.33
2022-09-07T11:15:33.218Z,43.16
2022-09-07T11:18:10.216Z,42.81
2022-09-07T11:20:56.472Z,42.74
2022-09-07T11:24:00.891Z,42.74
2022-09-07T11:27:02.205Z,42.41
2022-09-07T11:29:34.958Z,42.30
2022-09-07T11:32:13.326Z,42.43
2022-09-07T11:34:52.237Z,42.25
2022-09-07T11:37:31.769Z,41.89
2022-09-07T11:40:30.471Z,42.04
2022-09-07T11:43:23.437Z,41.72
2022-09-07T11:46:00.111Z,41.70
2022-09-07T11:48:56.923Z,41.46
2022-09-07T11:51:42.129Z,41.25
2022-09-07T11:54:48.776Z,41.02
2022-09-07T11:57:45.750Z,41.08
2022-09-07T12:00:28.346Z,40.88
2022-09-07T12:03:22.651Z,40.80
2022-09-07T12:06:34.516Z,40.68
2022-09-07T12:09:17.126Z,40.41
2022-09-07T12:12:07.086Z,40.23
2022-09-07T12:14:48.621Z,39.98
2022-09-07T12:17:35.265Z,39.74
2022-09-07T12:20:20.945Z,40.06
2022-09-07T12:23:05.692Z,39.66
2022-09-07T12:25:37.167Z,39.60
2022-09-07T12:28:07.703Z,39.67
2022-09-07T12:30:37.904Z,39.60
2022-09-07T12:33:41.681Z,39.64
2022-09-07T12:36:30.795Z,39.64
2022-09-07T12:39:25.676Z,39.36
2022-09-07T12:42:34.346Z,39.36
2022-09-07T12:45:32.200Z,38.75
2022-09-07T12:48:16.879Z,38.69
2022-09-07T12:51:06.537Z,38.64
2022-09-07T12:53:48.180Z,38.46
2022-09-07T12:56:34.277Z,38.43
2022-09-07T12:59:35.100Z,38.42
2022-09-07T13:02:41.603Z,38.29
2022-09-07T13:05:22.507Z,38.06
2022-09-07T13:08:09.337Z,38.35
2022-09-07T13:10:43.986Z,38.15
2022-09-07T13:13:17.485Z,38.21
2022-09-07T13:15:54.462Z,38.21
2022-09-07T13:18:28.564Z,38.13
2022-09-07T13:21:11.198Z,38.30
2022-09-07T13:23:48.210Z,38.15
2022-09-07T13:26:55.243Z,37.85
2022-09-07T13:29:34.141Z,37.92
2022-09-07T13:35:23.331Z,37.68
2022-09-07T13:38:02.737Z,37.58
2022-09-07T13:40:36.582Z,37.41
2022-09-07T13:43:13.549Z,37.32
2022-09-07T13:46:06.862Z,37.45
2022-09-07T13:48:53.774Z,37.40
2022-09-07T13:51:31.796Z,37.31
2022-09-07T13:54:20.589Z,37.20
2022-09-07T13:57:09.330Z,36.87
2022-09-07T13:59:42.510Z,37.04
2022-09-07T14:02:35.215Z,36.83
2022-09-07T14:05:06.918Z,36.92
2022-09-07T14:07:37.614Z,37.05
2022-09-07T14:10:13.952Z,36.86
2022-09-07T14:12:51.971Z,36.65
2022-09-07T14:15:27.426Z,36.77
2022-09-07T14:18:07.990Z,36.87
2022-09-07T14:20:49.570Z,36.72
2022-09-07T14:23:35.977Z,36.95
2022-09-07T14:26:16.650Z,37.21
2022-09-07T14:28:49.966Z,36.84
2022-09-07T14:31:22.517Z,36.86
2022-09-07T14:33:58.498Z,36.87
2022-09-07T14:36:44.859Z,36.65
2022-09-07T14:39:19.012Z,36.71
2022-09-07T14:41:50.163Z,36.63
2022-09-07T14:44:35.984Z,36.85
2022-09-07T14:47:22.752Z,36.69
2022-09-07T14:49:56.004Z,36.66
2022-09-07T14:52:42.489Z,36.73
2022-09-07T14:55:39.197Z,36.44
2022-09-07T14:58:24.087Z,36.55
2022-09-07T15:01:38.119Z,36.57
2022-09-07T15:04:19.871Z,36.49
2022-09-07T15:07:01.359Z,36.44
2022-09-07T15:09:41.245Z,36.44
2022-09-07T15:12:38.324Z,36.37
2022-09-07T15:15:31.759Z,36.25
2022-09-07T15:18:09.148Z,36.28
2022-09-07T15:20:45.462Z,36.54
2022-09-07T15:23:16.888Z,36.52
2022-09-07T15:25:54.031Z,36.58
2022-09-07T15:34:18.562Z,36.87
2022-09-07T15:36:54.116Z,36.69
2022-09-07T15:39:27.937Z,36.65
2022-09-07T15:42:00.511Z,37.19
2022-09-07T15:44:50.281Z,37.72
2022-09-07T15:50:13.047Z,38.00
2022-09-07T15:52:46.355Z,37.94
2022-09-07T15:55:17.803Z,38.08
2022-09-07T15:57:50.193Z,38.23
2022-09-07T16:00:23.263Z,38.52
2022-09-07T16:03:09.703Z,38.69
2022-09-07T16:05:45.304Z,38.73
2022-09-07T16:08:25.104Z,38.74
2022-09-07T16:11:05.257Z,38.88
2022-09-07T16:13:36.985Z,39.01
2022-09-07T16:16:08.965Z,39.13
2022-09-07T16:18:40.318Z,39.27
2022-09-07T16:21:14.011Z,39.34
2022-09-07T16:23:49.857Z,39.38
2022-09-07T16:26:22.559Z,39.42
2022-09-07T16:28:54.685Z,39.68
2022-09-07T16:31:28.118Z,39.68
2022-09-07T16:33:59.074Z,39.78
2022-09-07T16:36:30.364Z,39.89
2022-09-07T16:39:02.530Z,39.95
2022-09-07T16:41:33.943Z,39.97
2022-09-07T16:44:04.709Z,40.09
2022-09-07T16:46:35.986Z,40.20
2022-09-07T16:49:07.663Z,40.22
2022-09-07T16:51:38.429Z,40.25
2022-09-07T16:54:12.166Z,40.33
2022-09-07T16:56:42.243Z,40.36
2022-09-07T16:59:18.739Z,40.32
2022-09-07T17:01:52.297Z,40.40
2022-09-07T17:04:22.978Z,40.38
2022-09-07T17:06:54.808Z,40.30
2022-09-07T17:09:27.084Z,40.36
2022-09-07T17:11:57.419Z,40.30
2022-09-07T17:14:28.746Z,40.32
2022-09-07T17:16:59.228Z,40.33
2022-09-07T17:19:30.352Z,40.33
2022-09-07T17:22:01.498Z,40.38
2022-09-07T17:24:32.808Z,40.39
2022-09-07T17:27:04.059Z,40.45
2022-09-07T17:29:37.161Z,40.51
2022-09-07T17:32:24.609Z,40.60
2022-09-07T17:34:56.934Z,40.64
2022-09-07T17:37:27.280Z,40.61
2022-09-07T17:39:58.306Z,40.68
2022-09-07T17:45:20.104Z,40.78
2022-09-07T17:47:50.868Z,40.74
2022-09-07T17:50:21.330Z,40.83
2022-09-07T17:52:53.241Z,40.84
2022-09-07T17:55:24.036Z,40.87
2022-09-07T17:57:54.499Z,40.92
2022-09-07T18:00:25.366Z,41.05
2022-09-07T18:02:56.279Z,40.97
2022-09-07T18:05:27.027Z,41.15
2022-09-07T18:08:00.772Z,41.09
2022-09-07T18:11:45.062Z,41.10
2022-09-07T18:13:33.502Z,41.23
2022-09-07T18:16:20.171Z,41.25
2022-09-07T18:18:51.540Z,41.33
2022-09-07T18:21:30.526Z,41.37
2022-09-07T18:24:05.643Z,41.42
2022-09-07T18:26:39.850Z,41.48
2022-09-07T18:29:27.216Z,41.52
2022-09-07T18:31:59.015Z,41.51
2022-09-07T18:34:31.782Z,41.63
2022-09-07T18:37:03.444Z,41.65
2022-09-07T18:39:36.004Z,41.69
2022-09-07T18:42:07.762Z,41.69
2022-09-07T18:47:32.632Z,41.87
2022-09-07T18:50:03.637Z,42.00
2022-09-07T18:55:28.773Z,42.17
2022-09-07T18:57:59.770Z,42.12
2022-09-07T19:00:30.913Z,42.25
2022-09-07T19:03:02.445Z,42.31
2022-09-07T19:08:26.257Z,42.33
2022-09-07T19:10:57.351Z,42.41
2022-09-07T19:13:28.315Z,42.51
2022-09-07T19:16:07.329Z,42.70
2022-09-07T19:18:39.349Z,42.74
2022-09-07T19:21:16.721Z,42.84
2022-09-07T19:24:00.877Z,42.81
2022-09-07T19:26:34.679Z,42.95
2022-09-07T19:29:16.264Z,43.04
2022-09-07T19:32:05.006Z,43.05
2022-09-07T19:34:52.927Z,43.19
2022-09-07T19:37:26.859Z,43.27
2022-09-07T19:39:58.267Z,43.44
2022-09-07T19:42:30.257Z,43.35
2022-09-07T19:45:01.756Z,43.40
2022-09-07T19:47:42.166Z,43.61
2022-09-07T19:50:20.228Z,43.51
2022-09-07T19:52:51.626Z,43.59
2022-09-07T19:55:22.474Z,43.67
2022-09-07T19:57:54.557Z,43.82
2022-09-07T20:00:26.621Z,43.73
2022-09-07T20:03:00.394Z,43.86
2022-09-07T20:05:31.627Z,44.02
2022-09-07T20:08:05.550Z,44.04
2022-09-07T20:10:38.131Z,43.95
2022-09-07T20:13:09.126Z,44.15
2022-09-07T20:15:43.250Z,44.15
2022-09-07T20:18:14.295Z,44.14
2022-09-07T20:20:45.257Z,44.24
2022-09-07T20:23:17.557Z,44.40
2022-09-07T20:25:59.371Z,44.51
2022-09-07T20:28:30.328Z,44.51
2022-09-07T20:31:03.963Z,44.40
2022-09-07T20:33:36.934Z,44.49
2022-09-07T20:36:16.268Z,44.54
2022-09-07T20:38:57.784Z,44.69
2022-09-07T20:41:34.393Z,44.58
2022-09-07T20:44:06.197Z,44.59
2022-09-07T20:46:36.617Z,44.65
2022-09-07T20:49:08.027Z,44.79
2022-09-07T20:51:40.307Z,44.76
2022-09-07T20:54:10.480Z,44.85
2022-09-07T20:56:40.916Z,44.84
2022-09-07T20:59:13.654Z,44.79
2022-09-07T21:01:46.892Z,44.95
2022-09-07T21:04:17.146Z,44.96
2022-09-07T21:06:47.474Z,44.95
2022-09-07T21:09:17.808Z,44.94
2022-09-07T21:11:50.153Z,44.98
2022-09-07T21:14:22.708Z,45.09
2022-09-07T21:16:53.082Z,45.15
2022-09-07T21:19:23.295Z,45.19
2022-09-07T21:21:53.713Z,45.37
2022-09-07T21:24:26.325Z,45.28
2022-09-07T21:26:59.707Z,45.25
2022-09-07T21:29:30.186Z,45.23
2022-09-07T21:32:00.717Z,45.32
2022-09-07T21:34:30.958Z,45.49
2022-09-07T21:37:01.415Z,45.22
2022-09-07T21:39:31.972Z,45.49
2022-09-07T21:42:02.407Z,45.54
2022-09-07T21:44:32.704Z,45.53
2022-09-07T21:47:05.498Z,45.43
2022-09-07T21:49:35.881Z,45.34
2022-09-07T21:52:06.249Z,45.77
2022-09-07T21:54:36.756Z,45.71
2022-09-07T21:57:07.320Z,45.77
2022-09-07T21:59:37.767Z,45.70
2022-09-07T22:02:07.982Z,45.72
2022-09-07T22:04:39.382Z,45.86
2022-09-07T22:07:09.705Z,45.98
2022-09-07T22:09:40.199Z,45.95
2022-09-07T22:12:10.811Z,46.07
2022-09-07T22:14:41.478Z,45.97
2022-09-07T22:17:12.278Z,46.18
2022-09-07T22:19:43.522Z,46.34
2022-09-07T22:22:14.357Z,46.46
2022-09-07T22:24:44.518Z,46.36
2022-09-07T22:27:14.896Z,46.39
2022-09-07T22:29:45.182Z,46.17
2022-09-07T22:32:15.589Z,46.18
2022-09-07T22:34:45.882Z,46.37
2022-09-07T22:37:16.306Z,46.43
2022-09-07T22:39:46.735Z,46.33
2022-09-07T22:42:17.007Z,46.40
2022-09-07T22:44:47.705Z,46.30
2022-09-07T22:47:18.115Z,46.31
2022-09-07T22:49:48.379Z,46.44
2022-09-07T22:52:18.955Z,46.49
2022-09-07T22:54:49.415Z,46.64
2022-09-07T22:57:19.847Z,46.62
2022-09-07T22:59:50.261Z,46.69
2022-09-07T23:02:20.668Z,46.71
2022-09-07T23:04:50.987Z,46.74
2022-09-07T23:07:22.349Z,46.79
2022-09-07T23:09:52.600Z,47.03
2022-09-07T23:12:22.934Z,46.80
2022-09-07T23:14:53.156Z,46.80
2022-09-07T23:17:23.906Z,46.90
2022-09-07T23:19:54.226Z,46.97
2022-09-07T23:22:24.837Z,47.08
2022-09-07T23:24:55.292Z,46.80
2022-09-07T23:27:25.765Z,46.95
2022-09-07T23:29:56.083Z,47.18
2022-09-07T23:32:26.562Z,47.19
2022-09-07T23:34:57.091Z,47.10
2022-09-07T23:37:27.787Z,47.26
2022-09-07T23:39:58.593Z,47.34
2022-09-07T23:42:28.995Z,47.34
2022-09-07T23:44:59.194Z,47.56
2022-09-07T23:47:29.375Z,47.52
2022-09-07T23:49:59.547Z,47.53
2022-09-07T23:52:30.099Z,47.40
2022-09-07T23:55:00.399Z,47.37
2022-09-07T23:57:30.667Z,47.26
